Time;durP1;ratioP1;P1;durP2;ratioP2;P2;SDS_P1;SDS_P2;PMS_P1;PMS_P2;Temp;Humidity;BMP_temperature;BMP_pressure;BME280_temperature;BME280_humidity;BME280_pressure;Samples;Min_cycle;Max_cycle;Signal;HPM_P1;HPM_P2
2023/01/03 00:00:43;;;;;;;;;;;;;;;1.68;88.62;96319.81;5072785;28;1048;-49
2023/01/03 00:03:13;;;;;;;;;;;;;;;1.66;89.63;96322.53;5072734;28;1056;-48
2023/01/03 00:05:41;;;;;;;;;;;;;;;1.74;90.09;96322.13;5073986;28;1239;-48
2023/01/03 00:08:07;;;;;;;;;;;;;;;1.69;89.17;96322.38;5076252;28;1024;-48
2023/01/03 00:10:33;;;;;;;;;;;;;;;1.76;89.41;96325.53;5076180;28;1064;-48
2023/01/03 00:12:59;;;;;;;;;;;;;;;1.80;88.83;96328.88;5076442;28;965;-48
2023/01/03 00:15:25;;;;;;;;;;;;;;;1.72;88.61;96332.75;5076218;28;1028;-49
2023/01/03 00:17:52;;;;;;;;;;;;;;;1.66;88.36;96327.81;5076127;28;1906;-48
2023/01/03 00:20:18;;;;;;;;;;;;;;;1.59;88.36;96328.19;5076142;28;974;-48
2023/01/03 00:22:44;;;;;;;;;;;;;;;1.52;89.03;96332.94;5058177;28;1027;-48
2023/01/03 00:25:10;;;;;;;;;;;;;;;1.56;89.31;96337.97;5075809;28;1306;-48
2023/01/03 00:27:36;;;;;;;;;;;;;;;1.58;89.13;96334.41;5058281;28;1188;-48
2023/01/03 00:30:03;;;;;;;;;;;;;;;1.55;88.01;96330.13;5076115;28;975;-49
2023/01/03 00:32:29;;;;;;;;;;;;;;;1.51;88.19;96324.16;5075856;28;1017;-48
2023/01/03 00:34:55;;;;;;;;;;;;;;;1.50;88.30;96332.13;5058100;28;1087;-48
2023/01/03 00:37:21;;;;;;;;;;;;;;;1.49;88.63;96328.66;5075712;28;1992;-49
2023/01/03 00:39:47;;;;;;;;;;;;;;;1.48;88.20;96326.09;5075718;28;1024;-48
2023/01/03 00:42:13;;;;;;;;;;;;;;;1.40;88.04;96330.91;5076007;28;997;-49
2023/01/03 00:44:40;;;;;;;;;;;;;;;1.34;89.45;96330.25;5075737;28;1013;-48
2023/01/03 00:47:06;;;;;;;;;;;;;;;1.34;89.15;96327.63;5075721;28;1003;-48
2023/01/03 00:49:32;;;;;;;;;;;;;;;1.38;91.08;96330.13;5075604;28;1021;-48
2023/01/03 00:51:58;;;;;;;;;;;;;;;1.36;88.22;96328.41;5075520;28;1084;-48
2023/01/03 00:54:24;;;;;;;;;;;;;;;1.27;87.73;96323.63;5075761;28;1057;-49
2023/01/03 00:56:50;;;;;;;;;;;;;;;1.16;87.74;96328.56;5075549;28;1113;-49
2023/01/03 00:59:17;;;;;;;;;;;;;;;1.13;87.96;96333.97;5075290;28;1907;-48
2023/01/03 01:01:45;;;;;;;;;;;;;;;1.16;88.29;96325.91;5075292;28;1029;-48
2023/01/03 01:04:16;;;;;;;;;;;;;;;1.22;88.57;96328.25;5075226;28;1227;-49
2023/01/03 01:06:43;;;;;;;;;;;;;;;1.26;88.73;96315.78;5057457;28;1037;-49
2023/01/03 01:09:11;;;;;;;;;;;;;;;1.24;87.62;96320.28;5075444;28;1021;-48
2023/01/03 01:11:37;;;;;;;;;;;;;;;1.26;88.65;96318.41;5075089;28;1032;-48
2023/01/03 01:14:18;;;;;;;;;;;;;;;1.26;88.80;96323.69;5075160;28;1028;-48
2023/01/03 01:16:46;;;;;;;;;;;;;;;1.28;88.37;96317.41;5074597;28;1091;-48
2023/01/03 01:19:12;;;;;;;;;;;;;;;1.12;87.23;96313.81;5074933;28;1985;-49
2023/01/03 01:21:38;;;;;;;;;;;;;;;0.93;88.38;96308.56;5057092;28;1039;-48
2023/01/03 01:24:04;;;;;;;;;;;;;;;0.91;88.47;96313.06;5074936;28;1238;-48
2023/01/03 01:26:30;;;;;;;;;;;;;;;0.90;88.08;96309.59;5074974;28;1043;-48
2023/01/03 01:28:56;;;;;;;;;;;;;;;0.79;87.27;96314.50;5074910;28;1008;-48
2023/01/03 01:31:23;;;;;;;;;;;;;;;0.66;86.34;96313.38;5074766;28;989;-48
2023/01/03 01:33:50;;;;;;;;;;;;;;;0.71;88.27;96311.41;5074561;28;1029;-49
2023/01/03 01:36:18;;;;;;;;;;;;;;;0.78;88.62;96308.41;5074889;28;1057;-48
2023/01/03 01:38:45;;;;;;;;;;;;;;;0.77;88.13;96309.31;5074675;28;1938;-49
2023/01/03 01:41:15;;;;;;;;;;;;;;;0.80;87.85;96305.69;5074713;28;1033;-48
2023/01/03 01:46:41;;;;;;;;;;;;;;;0.81;88.62;96303.91;5074658;28;1033;-49
2023/01/03 01:49:11;;;;;;;;;;;;;;;0.87;89.47;96312.34;5074600;28;952;-48
2023/01/03 01:51:37;;;;;;;;;;;;;;;0.82;88.51;96303.84;5074438;28;1052;-49
2023/01/03 01:54:04;;;;;;;;;;;;;;;0.69;89.55;96308.00;5074271;28;1016;-49
2023/01/03 01:56:34;;;;;;;;;;;;;;;0.74;90.42;96306.84;5074260;28;964;-49
2023/01/03 01:59:00;;;;;;;;;;;;;;;0.79;92.22;96301.34;5074105;28;1906;-49
2023/01/03 02:01:26;;;;;;;;;;;;;;;0.87;91.47;96299.19;5074155;28;1040;-48
2023/01/03 02:04:00;;;;;;;;;;;;;;;0.85;90.53;96297.56;5074062;28;1085;-48
2023/01/03 02:06:26;;;;;;;;;;;;;;;0.86;89.46;96292.22;5074224;28;1008;-48
2023/01/03 02:08:52;;;;;;;;;;;;;;;0.90;89.07;96287.69;5074032;28;1019;-48
2023/01/03 02:11:37;;;;;;;;;;;;;;;0.88;88.29;96292.16;5072779;28;1034;-49
2023/01/03 02:14:07;;;;;;;;;;;;;;;0.63;87.86;96293.34;5074021;28;978;-48
2023/01/03 02:16:39;;;;;;;;;;;;;;;0.31;85.45;96293.06;5073978;28;999;-49
2023/01/03 02:19:14;;;;;;;;;;;;;;;0.38;87.68;96298.91;5073848;28;1985;-49
2023/01/03 02:21:49;;;;;;;;;;;;;;;0.35;88.40;96297.25;5056005;28;1947;-49
2023/01/03 02:24:30;;;;;;;;;;;;;;;0.29;88.98;96308.06;5073456;28;1254;-48
2023/01/03 02:26:59;;;;;;;;;;;;;;;0.21;90.79;96301.44;5073910;28;966;-49
2023/01/03 02:29:47;;;;;;;;;;;;;;;0.13;90.85;96301.78;5073168;28;1049;-49
2023/01/03 02:32:19;;;;;;;;;;;;;;;-0.02;91.78;96295.44;5073614;28;1045;-49
2023/01/03 02:34:51;;;;;;;;;;;;;;;-0.08;90.71;96301.81;5073741;28;1035;-48
2023/01/03 02:37:27;;;;;;;;;;;;;;;-0.05;90.65;96296.44;5073751;28;2023;-49
2023/01/03 02:39:59;;;;;;;;;;;;;;;0.05;90.56;96293.41;5073630;28;1007;-49
2023/01/03 02:45:39;;;;;;;;;;;;;;;0.10;89.63;96284.38;5073798;28;953;-49
2023/01/03 02:48:10;;;;;;;;;;;;;;;-0.04;88.48;96284.13;5062917;28;1779;-48
2023/01/03 02:50:40;;;;;;;;;;;;;;;0.02;88.76;96285.63;5073422;28;966;-49
2023/01/03 02:53:09;;;;;;;;;;;;;;;0.13;88.51;96299.16;5073458;28;1037;-48
2023/01/03 02:55:36;;;;;;;;;;;;;;;0.23;88.14;96292.56;5073549;28;1104;-49
2023/01/03 02:58:22;;;;;;;;;;;;;;;0.23;87.30;96291.69;5073291;28;1984;-48
2023/01/03 03:00:51;;;;;;;;;;;;;;;0.15;85.40;96292.91;5073128;28;1160;-49
2023/01/03 03:07:07;;;;;;;;;;;;;;;-0.24;83.96;96301.66;5021677;28;1824;-49
2023/01/03 03:13:11;;;;;;;;;;;;;;;-0.28;85.46;96297.44;5011307;28;1081;-49
2023/01/03 03:15:05;;;;;;;;;;;;;;;-0.23;87.13;96298.13;5011338;28;1041;-48
2023/01/03 03:17:31;;;;;;;;;;;;;;;-0.21;86.45;96295.38;5011146;28;1995;-48
2023/01/03 03:25:29;;;;;;;;;;;;;;;-0.13;87.22;96298.56;5011135;28;1284;-48
2023/01/03 03:30:45;;;;;;;;;;;;;;;0.02;88.93;96304.03;5011100;28;986;-49
2023/01/03 03:33:13;;;;;;;;;;;;;;;0.06;88.78;96298.59;5011095;28;1025;-49
2023/01/03 03:35:59;;;;;;;;;;;;;;;0.08;88.50;96301.16;5011027;28;1055;-48
2023/01/03 03:38:29;;;;;;;;;;;;;;;0.12;88.62;96295.69;5052966;28;1906;-48
2023/01/03 03:46:39;;;;;;;;;;;;;;;0.04;90.21;96304.81;5056869;28;1062;-49
2023/01/03 03:51:55;;;;;;;;;;;;;;;-0.02;91.94;96296.31;5056608;28;1160;-49
2023/01/03 03:54:22;;;;;;;;;;;;;;;-0.03;91.69;96304.25;5056873;28;1027;-48
2023/01/03 03:56:51;;;;;;;;;;;;;;;-0.17;90.68;96294.34;5056527;28;1057;-49
2023/01/03 03:59:19;;;;;;;;;;;;;;;-0.35;90.59;96301.25;5056374;28;1989;-49
2023/01/03 04:01:46;;;;;;;;;;;;;;;-0.46;91.23;96291.19;5038695;28;967;-49
2023/01/03 04:04:17;;;;;;;;;;;;;;;-0.51;91.60;96293.19;5056453;28;966;-49
2023/01/03 04:06:46;;;;;;;;;;;;;;;-0.47;91.10;96294.78;5058879;28;1093;-49
2023/01/03 04:09:13;;;;;;;;;;;;;;;-0.42;91.36;96294.56;5076382;28;1024;-48
2023/01/03 04:11:39;;;;;;;;;;;;;;;-0.36;90.91;96296.94;5076405;28;1172;-48
2023/01/03 04:14:05;;;;;;;;;;;;;;;-0.43;88.83;96293.72;5076378;28;943;-49
2023/01/03 04:16:31;;;;;;;;;;;;;;;-0.42;87.20;96290.19;5076251;28;1033;-48
2023/01/03 04:18:57;;;;;;;;;;;;;;;-0.36;86.86;96291.69;5076110;28;1910;-48
2023/01/03 04:21:23;;;;;;;;;;;;;;;-0.36;86.73;96294.31;5076121;28;1052;-48
2023/01/03 04:23:49;;;;;;;;;;;;;;;-0.46;85.44;96298.25;5075873;28;1168;-49
2023/01/03 04:26:15;;;;;;;;;;;;;;;-0.43;85.32;96298.97;5076241;28;1036;-49
2023/01/03 04:28:41;;;;;;;;;;;;;;;-0.49;85.04;96301.03;5076099;28;972;-48
2023/01/03 04:31:07;;;;;;;;;;;;;;;-0.47;86.25;96300.03;5076017;28;958;-49
2023/01/03 04:33:33;;;;;;;;;;;;;;;-0.51;87.04;96297.56;5075827;28;1039;-48
2023/01/03 04:35:59;;;;;;;;;;;;;;;-0.53;87.32;96304.66;5076139;28;1052;-49
2023/01/03 04:38:25;;;;;;;;;;;;;;;-0.48;85.91;96302.72;5074653;28;2367;-48
2023/01/03 04:40:51;;;;;;;;;;;;;;;-0.40;85.94;96301.47;5074758;28;949;-48
2023/01/03 04:46:02;;;;;;;;;;;;;;;-0.35;86.91;96309.16;5075622;28;1087;-49
2023/01/03 04:48:28;;;;;;;;;;;;;;;-0.44;86.64;96313.03;5075970;28;995;-48
2023/01/03 04:50:56;;;;;;;;;;;;;;;-0.48;88.54;96314.06;5074928;28;995;-48
2023/01/03 04:53:23;;;;;;;;;;;;;;;-0.60;88.75;96320.69;5075683;28;944;-48
2023/01/03 04:55:50;;;;;;;;;;;;;;;-0.62;89.97;96319.91;5075649;28;982;-48
2023/01/03 04:58:16;;;;;;;;;;;;;;;-0.42;90.00;96319.09;5075500;28;1913;-49
2023/01/03 05:00:42;;;;;;;;;;;;;;;-0.45;90.22;96320.97;5075306;28;1031;-48
2023/01/03 05:03:08;;;;;;;;;;;;;;;-0.49;90.70;96316.78;5075648;28;1012;-48
2023/01/03 05:05:38;;;;;;;;;;;;;;;-0.49;91.00;96317.63;5074117;28;1051;-48
2023/01/03 05:08:07;;;;;;;;;;;;;;;-0.46;91.23;96325.38;5075249;28;1024;-48
2023/01/03 05:10:33;;;;;;;;;;;;;;;-0.28;91.03;96320.25;5075115;28;1032;-48
2023/01/03 05:13:00;;;;;;;;;;;;;;;-0.22;91.39;96314.72;5075149;28;1138;-48
2023/01/03 05:15:30;;;;;;;;;;;;;;;-0.24;91.75;96321.84;5075023;28;1044;-48
2023/01/03 05:17:56;;;;;;;;;;;;;;;-0.17;91.94;96325.03;5075329;28;1906;-48
2023/01/03 05:25:56;;;;;;;;;;;;;;;-0.36;88.79;96323.22;5074849;28;961;-49
2023/01/03 05:28:23;;;;;;;;;;;;;;;-0.50;89.86;96322.94;5075115;28;942;-49
2023/01/03 05:30:49;;;;;;;;;;;;;;;-0.56;91.67;96328.47;5073602;28;993;-48
2023/01/03 05:33:15;;;;;;;;;;;;;;;-0.52;92.44;96333.50;5074766;28;1226;-48
2023/01/03 05:35:44;;;;;;;;;;;;;;;-0.40;93.15;96347.91;5073522;28;956;-48
2023/01/03 05:38:10;;;;;;;;;;;;;;;-0.18;93.37;96344.38;5074574;28;1922;-48
2023/01/03 05:40:36;;;;;;;;;;;;;;;-0.19;93.42;96340.88;5074520;28;972;-48
2023/01/03 05:43:02;;;;;;;;;;;;;;;-0.10;93.98;96342.25;5073433;28;1083;-48
2023/01/03 05:45:28;;;;;;;;;;;;;;;-0.05;93.44;96345.53;5074440;28;1059;-49
2023/01/03 05:47:57;;;;;;;;;;;;;;;-0.02;93.27;96340.13;5074530;28;971;-48
2023/01/03 05:50:23;;;;;;;;;;;;;;;-0.04;93.13;96342.84;5074350;28;1028;-48
2023/01/03 05:52:50;;;;;;;;;;;;;;;-0.14;93.10;96338.06;5074377;28;969;-48
2023/01/03 05:55:16;;;;;;;;;;;;;;;-0.21;93.50;96343.59;5074587;28;1048;-48
2023/01/03 05:57:42;;;;;;;;;;;;;;;-0.25;93.86;96346.41;5056641;28;1991;-48
2023/01/03 06:00:09;;;;;;;;;;;;;;;-0.22;93.73;96341.03;5074649;28;1080;-48
2023/01/03 06:02:35;;;;;;;;;;;;;;;-0.29;94.28;96342.19;5074148;28;958;-48
2023/01/03 06:05:01;;;;;;;;;;;;;;;-0.28;94.87;96344.75;5074041;28;1028;-48
2023/01/03 06:07:28;;;;;;;;;;;;;;;-0.37;94.71;96347.78;5056157;28;1479;-49
2023/01/03 06:09:54;;;;;;;;;;;;;;;-0.42;94.95;96347.09;5073913;28;1040;-48
2023/01/03 06:12:20;;;;;;;;;;;;;;;-0.34;95.05;96346.78;5072787;28;1095;-48
2023/01/03 06:14:47;;;;;;;;;;;;;;;-0.30;94.21;96353.66;5074024;28;983;-49
2023/01/03 06:19:57;;;;;;;;;;;;;;;-0.26;93.36;96361.31;5073884;28;996;-49
2023/01/03 06:22:23;;;;;;;;;;;;;;;-0.25;93.61;96354.28;5073674;28;1867;-49
2023/01/03 06:24:49;;;;;;;;;;;;;;;-0.16;93.31;96360.94;5073411;28;1187;-48
2023/01/03 06:27:15;;;;;;;;;;;;;;;-0.14;93.49;96361.72;5073992;28;1050;-48
2023/01/03 06:29:41;;;;;;;;;;;;;;;-0.17;93.59;96364.47;5072580;28;1015;-48
2023/01/03 06:32:08;;;;;;;;;;;;;;;-0.18;94.24;96360.16;5073797;28;1045;-49
2023/01/03 06:34:34;;;;;;;;;;;;;;;-0.09;94.20;96370.25;5073657;28;1008;-48
2023/01/03 06:37:00;;;;;;;;;;;;;;;0.03;93.96;96363.63;5073548;28;1009;-49
2023/01/03 06:39:26;;;;;;;;;;;;;;;0.14;93.45;96364.84;5072247;28;1902;-48
2023/01/03 06:41:52;;;;;;;;;;;;;;;0.22;93.28;96361.03;5073556;28;1088;-48
2023/01/03 06:44:18;;;;;;;;;;;;;;;0.22;92.98;96361.03;5073677;28;1112;-48
2023/01/03 06:55:00;;;;;;;;;;;;;;;-0.01;93.36;96365.53;5073523;28;1053;-48
2023/01/03 06:57:26;;;;;;;;;;;;;;;0.09;93.89;96363.34;5073271;28;1910;-49
2023/01/03 06:59:53;;;;;;;;;;;;;;;0.24;92.32;96365.28;5073247;28;1087;-49
2023/01/03 07:02:19;;;;;;;;;;;;;;;0.51;91.64;96372.84;5072131;28;1048;-49
2023/01/03 07:04:45;;;;;;;;;;;;;;;0.55;91.09;96371.78;5073405;28;978;-49
2023/01/03 07:07:11;;;;;;;;;;;;;;;0.59;90.47;96373.38;5073265;28;1077;-49
2023/01/03 07:09:37;;;;;;;;;;;;;;;0.74;89.99;96369.16;5073238;28;1003;-48
2023/01/03 07:13:57;;;;;;;;;;;;;;;0.85;89.14;96371.31;5073173;28;1025;-48
2023/01/03 07:14:49;;;;;;;;;;;;;;;0.76;89.09;96368.19;5077194;28;1866;-49
2023/01/03 07:17:15;;;;;;;;;;;;;;;0.70;90.76;96364.97;5062301;28;1081;-48
2023/01/03 07:19:41;;;;;;;;;;;;;;;0.79;90.09;96377.72;5079821;28;1975;-48
2023/01/03 07:22:07;;;;;;;;;;;;;;;0.62;90.33;96370.59;5079805;28;1020;-48
2023/01/03 07:24:33;;;;;;;;;;;;;;;0.75;91.25;96377.00;5079485;28;1190;-48
2023/01/03 07:26:59;;;;;;;;;;;;;;;0.84;90.64;96374.88;5078569;28;1052;-48
2023/01/03 07:29:25;;;;;;;;;;;;;;;0.73;90.37;96370.09;5079583;28;965;-49
2023/01/03 07:31:52;;;;;;;;;;;;;;;0.71;90.82;96379.84;5079651;28;1020;-48
2023/01/03 07:34:18;;;;;;;;;;;;;;;0.73;90.83;96373.56;5079677;28;1071;-48
2023/01/03 07:36:44;;;;;;;;;;;;;;;0.95;90.41;96378.72;5061966;28;1000;-49
2023/01/03 07:39:10;;;;;;;;;;;;;;;1.06;89.05;96372.06;5079638;28;1937;-48
2023/01/03 07:44:20;;;;;;;;;;;;;;;1.25;89.05;96379.94;5079595;28;1032;-48
2023/01/03 07:46:46;;;;;;;;;;;;;;;1.24;88.13;96384.34;5079841;28;1049;-49
2023/01/03 07:49:12;;;;;;;;;;;;;;;1.43;88.63;96383.47;5079657;28;1076;-48
2023/01/03 07:51:38;;;;;;;;;;;;;;;1.34;88.20;96379.50;5079324;28;1107;-48
2023/01/03 07:54:06;;;;;;;;;;;;;;;1.53;88.20;96376.81;5079599;28;1044;-47
2023/01/03 07:56:32;;;;;;;;;;;;;;;1.49;88.86;96381.38;5079729;28;1066;-47
2023/01/03 07:58:58;;;;;;;;;;;;;;;1.58;89.00;96380.06;5079658;28;1905;-47
2023/01/03 08:01:24;;;;;;;;;;;;;;;1.52;89.17;96372.47;5079605;28;1024;-48
2023/01/03 08:03:51;;;;;;;;;;;;;;;1.48;88.72;96381.44;5079607;28;973;-48
2023/01/03 08:06:18;;;;;;;;;;;;;;;1.61;89.01;96374.63;5079487;28;1090;-48
2023/01/03 08:13:16;;;;;;;;;;;;;;;1.76;87.66;96378.28;5079203;28;1105;-48
2023/01/03 08:14:15;;;;;;;;;;;;;;;1.53;90.02;96380.28;5079501;28;1076;-48
2023/01/03 08:16:41;;;;;;;;;;;;;;;1.40;90.38;96380.97;5079249;28;1020;-49
2023/01/03 08:19:07;;;;;;;;;;;;;;;1.43;90.93;96388.75;5079336;28;1986;-48
2023/01/03 08:21:34;;;;;;;;;;;;;;;1.39;90.01;96388.03;5079184;28;1073;-49
2023/01/03 08:24:01;;;;;;;;;;;;;;;1.53;90.24;96390.00;5078993;28;1616;-48
2023/01/03 08:26:27;;;;;;;;;;;;;;;1.69;90.71;96382.16;5075949;28;973;-48
2023/01/03 08:28:53;;;;;;;;;;;;;;;2.12;88.66;96383.47;5076188;28;1053;-48
2023/01/03 08:31:24;;;;;;;;;;;;;;;2.41;87.30;96388.16;5076214;28;1106;-48
2023/01/03 08:33:53;;;;;;;;;;;;;;;2.47;87.26;96385.22;5076014;28;1048;-48
2023/01/03 08:36:19;;;;;;;;;;;;;;;2.47;87.96;96386.06;5075980;28;1556;-48
2023/01/03 08:38:50;;;;;;;;;;;;;;;2.54;87.77;96384.81;5076013;28;1906;-49
2023/01/03 08:41:19;;;;;;;;;;;;;;;2.65;87.52;96381.56;5076154;28;962;-48
2023/01/03 08:43:46;;;;;;;;;;;;;;;2.79;86.14;96379.97;5075775;28;1100;-49
2023/01/03 08:46:13;;;;;;;;;;;;;;;2.91;86.67;96384.59;5075643;28;1092;-48
2023/01/03 08:48:39;;;;;;;;;;;;;;;2.90;85.67;96381.13;5075718;28;993;-48
2023/01/03 08:51:05;;;;;;;;;;;;;;;3.06;87.87;96385.56;5058161;28;1060;-49
2023/01/03 08:53:31;;;;;;;;;;;;;;;2.96;85.66;96384.34;5075793;28;981;-48
2023/01/03 08:55:58;;;;;;;;;;;;;;;2.82;87.16;96385.94;5075780;28;978;-48
2023/01/03 08:58:24;;;;;;;;;;;;;;;2.73;87.80;96386.44;5075458;28;1985;-48
2023/01/03 09:00:50;;;;;;;;;;;;;;;2.79;88.42;96380.84;5075458;28;1271;-48
2023/01/03 09:03:16;;;;;;;;;;;;;;;3.02;86.59;96384.88;5075527;28;1039;-48
2023/01/03 09:05:42;;;;;;;;;;;;;;;3.08;85.62;96373.09;5075538;28;962;-48
2023/01/03 09:08:08;;;;;;;;;;;;;;;3.30;85.79;96375.38;5075334;28;1081;-49
2023/01/03 09:10:35;;;;;;;;;;;;;;;3.31;85.44;96375.28;5075250;28;1056;-49
2023/01/03 09:13:03;;;;;;;;;;;;;;;3.65;84.59;96370.72;5075366;28;1038;-49
2023/01/03 09:15:29;;;;;;;;;;;;;;;3.73;84.86;96370.28;5075147;28;1079;-49
2023/01/03 09:17:55;;;;;;;;;;;;;;;3.75;84.64;96375.50;5075088;28;1902;-49
2023/01/03 09:20:21;;;;;;;;;;;;;;;4.03;83.26;96372.06;5075164;28;1016;-48
2023/01/03 09:22:47;;;;;;;;;;;;;;;4.14;82.19;96363.50;5075045;28;1012;-48
2023/01/03 09:25:14;;;;;;;;;;;;;;;4.33;82.66;96363.25;5075027;28;1457;-49
2023/01/03 09:27:44;;;;;;;;;;;;;;;4.63;80.57;96356.06;5074891;28;1095;-49
2023/01/03 09:30:10;;;;;;;;;;;;;;;4.83;79.42;96352.16;5074944;28;1095;-49
2023/01/03 09:32:36;;;;;;;;;;;;;;;5.24;77.78;96335.41;5074762;28;1130;-49
2023/01/03 09:35:02;;;;;;;;;;;;;;;5.62;76.25;96332.03;5074225;28;1077;-49
2023/01/03 09:37:28;;;;;;;;;;;;;;;5.98;75.34;96327.91;5074273;28;1913;-49
2023/01/03 09:39:54;;;;;;;;;;;;;;;6.09;73.69;96326.31;5074958;28;1008;-49
2023/01/03 09:45:10;;;;;;;;;;;;;;;6.67;72.86;96316.94;5074534;28;1064;-49
2023/01/03 09:47:38;;;;;;;;;;;;;;;6.64;72.44;96315.38;5074718;28;1019;-48
2023/01/03 09:50:05;;;;;;;;;;;;;;;6.73;73.13;96319.16;5074595;28;1354;-48
2023/01/03 10:03:51;;;;;;;;;;;;;;;6.95;73.24;96283.09;5074242;28;1039;-48
2023/01/03 10:06:32;;;;;;;;;;;;;;;7.31;72.49;96281.34;5074095;28;1028;-48
2023/01/03 10:09:17;;;;;;;;;;;;;;;7.44;71.20;96279.50;5074099;28;1115;-48
2023/01/03 10:11:55;;;;;;;;;;;;;;;7.92;70.33;96283.88;5074167;28;984;-48
2023/01/03 10:14:33;;;;;;;;;;;;;;;7.94;70.38;96271.31;5074041;28;1036;-48
2023/01/03 10:17:09;;;;;;;;;;;;;;;8.01;69.71;96270.72;5074095;28;988;-48
2023/01/03 10:19:44;;;;;;;;;;;;;;;8.44;68.85;96268.38;5056154;28;1988;-49
2023/01/03 10:22:20;;;;;;;;;;;;;;;8.54;68.02;96258.69;5074009;28;954;-49
2023/01/03 10:24:55;;;;;;;;;;;;;;;8.47;67.56;96260.97;5059340;28;1574;-48
2023/01/03 10:27:23;;;;;;;;;;;;;;;8.84;67.59;96247.41;5053910;28;1253;-49
2023/01/03 10:29:52;;;;;;;;;;;;;;;9.22;68.15;96253.22;5053973;28;1053;-49
2023/01/03 10:32:21;;;;;;;;;;;;;;;9.64;66.15;96248.00;5053835;28;1080;-48
2023/01/03 10:35:14;;;;;;;;;;;;;;;9.34;67.39;96247.75;5053757;28;1566;-48
2023/01/03 10:37:40;;;;;;;;;;;;;;;9.37;67.24;96233.28;5030371;28;1991;-48
2023/01/03 10:40:07;;;;;;;;;;;;;;;9.44;67.18;96236.31;5053624;28;1139;-48
2023/01/03 10:42:34;;;;;;;;;;;;;;;9.45;67.53;96236.19;5053742;28;977;-49
2023/01/03 10:45:02;;;;;;;;;;;;;;;9.58;67.20;96234.19;5053772;28;1025;-48
2023/01/03 10:47:28;;;;;;;;;;;;;;;9.75;67.21;96234.56;5053441;28;1008;-48
2023/01/03 10:50:02;;;;;;;;;;;;;;;9.75;67.50;96229.22;5052774;28;1276;-49
2023/01/03 10:52:33;;;;;;;;;;;;;;;9.93;66.06;96214.31;5053383;28;1040;-48
2023/01/03 10:55:00;;;;;;;;;;;;;;;9.85;66.27;96210.63;5053547;28;1041;-49
2023/01/03 10:57:52;;;;;;;;;;;;;;;9.75;66.86;96205.19;5053515;28;976;-49
2023/01/03 11:00:21;;;;;;;;;;;;;;;9.64;67.34;96199.94;5050632;28;1202;-48
2023/01/03 11:02:48;;;;;;;;;;;;;;;9.55;68.00;96194.38;5053588;28;1341;-48
2023/01/03 11:05:15;;;;;;;;;;;;;;;9.82;67.27;96192.19;5053240;28;1060;-48
2023/01/03 11:07:43;;;;;;;;;;;;;;;9.99;67.32;96182.72;5074050;28;1207;-48
2023/01/03 11:10:15;;;;;;;;;;;;;;;10.52;65.62;96187.91;5093702;28;961;-49
2023/01/03 11:12:41;;;;;;;;;;;;;;;10.67;64.71;96177.69;5093449;28;1083;-49
2023/01/03 11:15:26;;;;;;;;;;;;;;;11.05;63.77;96171.56;5093473;28;1056;-48
2023/01/03 11:17:52;;;;;;;;;;;;;;;10.90;63.39;96171.09;5093605;28;1902;-48
2023/01/03 11:20:21;;;;;;;;;;;;;;;10.50;64.84;96165.81;5093397;28;1036;-49
2023/01/03 11:22:54;;;;;;;;;;;;;;;10.30;65.78;96160.41;5093497;28;999;-47
2023/01/03 11:25:23;;;;;;;;;;;;;;;10.43;66.00;96143.25;5074061;28;1533;-49
2023/01/03 11:28:08;;;;;;;;;;;;;;;10.65;65.02;96136.84;5073191;28;1040;-48
2023/01/03 11:30:46;;;;;;;;;;;;;;;10.93;64.32;96130.72;5073278;28;934;-48
2023/01/03 11:33:28;;;;;;;;;;;;;;;11.01;64.08;96129.16;5073271;28;966;-48
2023/01/03 11:36:00;;;;;;;;;;;;;;;11.38;62.85;96125.78;5073070;28;1056;-48
2023/01/03 11:38:29;;;;;;;;;;;;;;;11.11;63.10;96130.00;5072882;28;2354;-49
2023/01/03 11:41:14;;;;;;;;;;;;;;;11.32;63.24;96127.19;5073222;28;982;-48
2023/01/03 11:43:40;;;;;;;;;;;;;;;11.26;62.42;96119.72;5073067;28;1016;-48
2023/01/03 11:46:06;;;;;;;;;;;;;;;11.04;63.49;96118.16;5055166;28;1036;-49
2023/01/03 11:48:38;;;;;;;;;;;;;;;11.06;63.40;96119.72;5072855;28;1041;-48
2023/01/03 11:51:13;;;;;;;;;;;;;;;11.16;63.02;96121.56;5073103;28;1020;-48
2023/01/03 11:53:58;;;;;;;;;;;;;;;11.11;63.14;96113.94;5073021;28;1008;-48
2023/01/03 11:56:28;;;;;;;;;;;;;;;11.30;62.57;96111.25;5072874;28;1048;-49
2023/01/03 11:58:54;;;;;;;;;;;;;;;11.15;63.62;96115.34;5072679;28;1983;-48
2023/01/03 12:01:23;;;;;;;;;;;;;;;11.14;63.60;96111.00;5075692;28;1045;-48
2023/01/03 12:03:59;;;;;;;;;;;;;;;11.40;62.99;96102.38;5076690;28;1071;-48
2023/01/03 12:06:40;;;;;;;;;;;;;;;11.64;61.68;96102.75;5076423;28;1020;-48
2023/01/03 12:09:24;;;;;;;;;;;;;;;11.72;60.83;96097.53;5056554;28;1044;-48
2023/01/03 12:12:09;;;;;;;;;;;;;;;11.77;61.27;96091.72;5056603;28;1064;-48
2023/01/03 12:14:39;;;;;;;;;;;;;;;11.68;61.21;96088.06;5056462;28;1515;-49
2023/01/03 12:17:08;;;;;;;;;;;;;;;11.64;61.65;96081.31;5056321;28;1024;-48
2023/01/03 12:20:08;;;;;;;;;;;;;;;11.62;61.59;96080.63;5056117;28;1989;-48
2023/01/03 12:22:46;;;;;;;;;;;;;;;11.60;61.32;96077.25;5013043;28;1384;-48
2023/01/03 12:25:18;;;;;;;;;;;;;;;11.53;61.84;96078.81;5056035;28;1535;-48
2023/01/03 12:27:54;;;;;;;;;;;;;;;11.38;62.47;96070.38;5056143;28;1084;-49
2023/01/03 12:30:27;;;;;;;;;;;;;;;11.49;62.11;96072.91;5037780;28;1308;-49
2023/01/03 12:32:54;;;;;;;;;;;;;;;11.49;61.82;96067.53;5036091;28;1012;-49
2023/01/03 12:35:26;;;;;;;;;;;;;;;11.60;61.62;96071.06;5036268;28;977;-49
2023/01/03 12:37:54;;;;;;;;;;;;;;;11.56;61.06;96073.19;5036144;28;1910;-49
2023/01/03 12:40:20;;;;;;;;;;;;;;;11.59;61.05;96066.69;5035803;28;1052;-48
2023/01/03 12:42:55;;;;;;;;;;;;;;;11.63;61.39;96070.75;5035853;28;969;-49
2023/01/03 12:45:43;;;;;;;;;;;;;;;11.60;61.87;96068.38;5036092;28;1052;-49
2023/01/03 12:48:12;;;;;;;;;;;;;;;11.51;62.65;96056.69;5035979;28;1042;-48
2023/01/03 12:50:48;;;;;;;;;;;;;;;11.37;62.20;96049.97;5035479;28;1090;-49
2023/01/03 12:53:14;;;;;;;;;;;;;;;11.27;62.08;96062.53;5035827;28;1038;-48
2023/01/03 12:56:07;;;;;;;;;;;;;;;11.21;62.29;96052.38;5035887;28;1080;-49
2023/01/03 12:58:33;;;;;;;;;;;;;;;11.12;62.84;96052.25;5019860;28;1910;-49
2023/01/03 13:01:04;;;;;;;;;;;;;;;10.98;62.92;96051.84;5035429;28;1094;-49
2023/01/03 13:03:47;;;;;;;;;;;;;;;10.89;63.36;96045.53;5035597;28;1023;-49
2023/01/03 13:06:16;;;;;;;;;;;;;;;10.97;63.24;96050.16;5035535;28;1025;-48
2023/01/03 13:08:50;;;;;;;;;;;;;;;10.99;63.73;96043.66;5035265;28;1122;-49
2023/01/03 13:11:23;;;;;;;;;;;;;;;10.96;64.08;96043.94;5035177;28;1041;-48
2023/01/03 13:13:58;;;;;;;;;;;;;;;10.95;63.90;96047.63;5035103;28;974;-48
2023/01/03 13:16:33;;;;;;;;;;;;;;;10.95;64.48;96047.63;5035236;28;1031;-49
2023/01/03 13:19:18;;;;;;;;;;;;;;;10.93;64.70;96049.59;5035159;28;1985;-48
2023/01/03 13:21:53;;;;;;;;;;;;;;;10.92;64.57;96043.38;5034940;28;1258;-49
2023/01/03 13:24:38;;;;;;;;;;;;;;;10.89;64.85;96041.00;5035499;28;1498;-48
2023/01/03 13:27:16;;;;;;;;;;;;;;;10.81;64.45;96040.84;5035133;28;1053;-49
2023/01/03 13:29:43;;;;;;;;;;;;;;;10.83;63.96;96036.22;5034965;28;1029;-48
2023/01/03 13:32:21;;;;;;;;;;;;;;;10.80;63.34;96038.34;5034750;28;1192;-49
2023/01/03 13:34:53;;;;;;;;;;;;;;;10.83;63.54;96028.19;5034896;28;968;-48
2023/01/03 13:37:21;;;;;;;;;;;;;;;10.86;64.30;96033.25;5034850;28;1064;-49
2023/01/03 13:39:49;;;;;;;;;;;;;;;10.88;64.21;96041.97;5034933;28;2090;-48
2023/01/03 13:42:18;;;;;;;;;;;;;;;10.87;64.39;96036.75;5033323;28;1201;-49
2023/01/03 13:44:44;;;;;;;;;;;;;;;10.85;64.40;96038.72;5034786;28;969;-49
2023/01/03 13:47:31;;;;;;;;;;;;;;;10.79;64.50;96033.97;5034554;28;1100;-49
2023/01/03 13:49:57;;;;;;;;;;;;;;;10.79;64.29;96034.78;5030768;28;1293;-48
2023/01/03 13:52:55;;;;;;;;;;;;;;;10.79;64.28;96028.59;5034434;28;1032;-49
2023/01/03 13:55:36;;;;;;;;;;;;;;;10.77;65.69;96036.75;5034675;28;992;-49
2023/01/03 13:58:22;;;;;;;;;;;;;;;10.71;67.83;96037.34;5034286;28;2003;-49
2023/01/03 14:00:53;;;;;;;;;;;;;;;10.65;67.80;96030.72;5034143;28;1911;-49
2023/01/03 14:03:19;;;;;;;;;;;;;;;10.64;68.88;96029.03;5034589;28;1052;-49
2023/01/03 14:05:53;;;;;;;;;;;;;;;10.59;69.55;96030.44;5034290;28;1080;-49
2023/01/03 14:08:32;;;;;;;;;;;;;;;10.47;69.47;96033.25;5034063;28;1094;-49
2023/01/03 14:11:17;;;;;;;;;;;;;;;10.45;69.95;96037.03;5039193;28;1074;-49
2023/01/03 14:13:47;;;;;;;;;;;;;;;10.37;70.37;96034.22;5054131;28;964;-49
2023/01/03 14:16:16;;;;;;;;;;;;;;;10.25;71.00;96031.63;5054153;28;1052;-49
2023/01/03 14:18:45;;;;;;;;;;;;;;;10.05;71.64;96027.19;5052997;28;1906;-49
2023/01/03 14:21:20;;;;;;;;;;;;;;;9.89;72.03;96033.91;5054044;28;1032;-49
2023/01/03 14:23:46;;;;;;;;;;;;;;;9.71;73.29;96031.03;5052400;28;1254;-49
2023/01/03 14:26:14;;;;;;;;;;;;;;;9.58;73.06;96030.44;5053725;28;1234;-49